Time;durP1;ratioP1;P1;durP2;ratioP2;P2;SDS_P1;SDS_P2;PMS_P1;PMS_P2;Temp;Humidity;BMP_temperature;BMP_pressure;BME280_temperature;BME280_humidity;BME280_pressure;Samples;Min_cycle;Max_cycle;Signal;HPM_P1;HPM_P2
2023/04/03 00:01:38;;;;;;;4.40;2.97;;;;;;;;;;4964941;28;20015;-74
2023/04/03 00:04:23;;;;;;;3.33;2.47;;;;;;;;;;4965022;28;20411;-75
2023/04/03 00:07:09;;;;;;;3.95;2.70;;;;;;;;;;4979087;28;20023;-75
2023/04/03 00:09:55;;;;;;;3.78;2.90;;;;;;;;;;4978527;28;20070;-74
2023/04/03 00:12:40;;;;;;;3.42;2.67;;;;;;;;;;4964761;28;20432;-75
2023/04/03 00:15:26;;;;;;;3.25;2.33;;;;;;;;;;4978078;28;20058;-75
2023/04/03 00:18:12;;;;;;;3.08;2.30;;;;;;;;;;4978929;28;20030;-75
2023/04/03 00:20:57;;;;;;;7.25;2.53;;;;;;;;;;4978715;28;20042;-75
2023/04/03 00:23:43;;;;;;;3.20;2.08;;;;;;;;;;4978255;28;20109;-75
2023/04/03 00:26:29;;;;;;;4.25;2.60;;;;;;;;;;4977123;28;20026;-74
2023/04/03 00:29:14;;;;;;;4.57;2.60;;;;;;;;;;4979315;28;20034;-74
2023/04/03 00:32:00;;;;;;;3.67;2.80;;;;;;;;;;4964535;28;20431;-74
2023/04/03 00:34:46;;;;;;;6.78;3.28;;;;;;;;;;4978943;28;20022;-73
2023/04/03 00:37:31;;;;;;;4.90;3.35;;;;;;;;;;4963778;28;20058;-75
2023/04/03 00:40:17;;;;;;;6.18;3.40;;;;;;;;;;4964707;28;20037;-75
2023/04/03 00:43:10;;;;;;;5.65;3.72;;;;;;;;;;4978704;28;20026;-75
2023/04/03 00:45:57;;;;;;;4.63;3.30;;;;;;;;;;4979266;28;20034;-74
2023/04/03 00:48:44;;;;;;;4.07;2.92;;;;;;;;;;4978483;28;20101;-74
2023/04/03 00:51:30;;;;;;;3.63;2.80;;;;;;;;;;4965179;28;20423;-75
2023/04/03 00:54:15;;;;;;;4.07;3.05;;;;;;;;;;4964297;28;20376;-74
2023/04/03 00:57:02;;;;;;;4.40;2.85;;;;;;;;;;4963747;28;20495;-74
2023/04/03 00:59:50;;;;;;;4.68;2.58;;;;;;;;;;4978412;28;20117;-75
2023/04/03 01:02:36;;;;;;;3.53;2.60;;;;;;;;;;4964168;28;20448;-74
2023/04/03 01:05:22;;;;;;;3.42;2.50;;;;;;;;;;4979964;28;20039;-74
2023/04/03 01:08:08;;;;;;;2.80;2.50;;;;;;;;;;4964388;28;20027;-75
2023/04/03 01:10:53;;;;;;;5.57;2.70;;;;;;;;;;4978206;28;20452;-74
2023/04/03 01:13:40;;;;;;;3.08;2.47;;;;;;;;;;4978023;28;20027;-74
2023/04/03 01:16:26;;;;;;;3.92;2.80;;;;;;;;;;4978575;28;20455;-75
2023/04/03 01:19:14;;;;;;;6.13;2.97;;;;;;;;;;4977800;28;20363;-75
2023/04/03 01:22:19;;;;;;;3.92;2.90;;;;;;;;;;4963700;28;20022;-75
2023/04/03 01:25:05;;;;;;;4.20;2.75;;;;;;;;;;4978245;28;20026;-73
2023/04/03 01:27:50;;;;;;;4.22;3.20;;;;;;;;;;4976939;28;20058;-75
2023/04/03 01:30:41;;;;;;;4.03;3.00;;;;;;;;;;4978130;28;20035;-75
2023/04/03 01:33:26;;;;;;;4.47;3.22;;;;;;;;;;4977871;28;20033;-74
2023/04/03 01:36:17;;;;;;;5.47;3.40;;;;;;;;;;4977820;28;20026;-75
2023/04/03 01:39:03;;;;;;;6.47;3.50;;;;;;;;;;4963945;28;20018;-74
2023/04/03 01:41:49;;;;;;;4.45;3.35;;;;;;;;;;4963104;28;20015;-73
2023/04/03 01:44:35;;;;;;;5.05;3.40;;;;;;;;;;4978509;28;20022;-75
2023/04/03 01:47:21;;;;;;;4.55;3.22;;;;;;;;;;4984818;28;20015;-74
2023/04/03 01:50:07;;;;;;;4.20;3.47;;;;;;;;;;4990284;28;20062;-74
2023/04/03 01:52:52;;;;;;;4.18;3.03;;;;;;;;;;4979810;28;20030;-74
2023/04/03 01:55:38;;;;;;;4.32;3.33;;;;;;;;;;4977937;28;20015;-73
2023/04/03 01:58:24;;;;;;;4.50;3.05;;;;;;;;;;4978609;28;20015;-73
2023/04/03 02:01:10;;;;;;;4.03;3.03;;;;;;;;;;4977543;28;20065;-73
2023/04/03 02:03:55;;;;;;;4.55;3.15;;;;;;;;;;4965072;28;20053;-74
2023/04/03 02:06:41;;;;;;;4.50;2.92;;;;;;;;;;4974978;28;20026;-75
2023/04/03 02:09:26;;;;;;;4.50;3.00;;;;;;;;;;4974359;28;20034;-74
2023/04/03 02:12:12;;;;;;;4.22;3.17;;;;;;;;;;4979166;28;20444;-75
2023/04/03 02:14:57;;;;;;;3.88;3.10;;;;;;;;;;4977044;28;20030;-75
2023/04/03 02:17:43;;;;;;;3.97;2.83;;;;;;;;;;4963789;28;20026;-74
2023/04/03 02:20:29;;;;;;;5.55;3.47;;;;;;;;;;4976916;28;20030;-73
2023/04/03 02:23:14;;;;;;;4.63;3.20;;;;;;;;;;4976509;28;20043;-76
2023/04/03 02:26:07;;;;;;;5.53;3.35;;;;;;;;;;4977682;28;20027;-75
2023/04/03 02:28:53;;;;;;;4.05;3.08;;;;;;;;;;4976863;28;20023;-74
2023/04/03 02:31:38;;;;;;;4.35;3.38;;;;;;;;;;4977447;28;20432;-75
2023/04/03 02:34:24;;;;;;;5.65;3.38;;;;;;;;;;4976935;28;20027;-74
2023/04/03 02:37:10;;;;;;;4.78;3.70;;;;;;;;;;4976243;28;20055;-74
2023/04/03 02:39:55;;;;;;;5.00;3.67;;;;;;;;;;4964084;28;20481;-75
2023/04/03 02:42:41;;;;;;;5.55;3.83;;;;;;;;;;4961766;28;20113;-75
2023/04/03 02:45:26;;;;;;;7.18;4.90;;;;;;;;;;4976303;28;20023;-74
2023/04/03 02:48:12;;;;;;;10.00;5.70;;;;;;;;;;4976699;28;20447;-75
2023/04/03 02:50:58;;;;;;;9.23;6.22;;;;;;;;;;4980589;28;20097;-74
2023/04/03 02:53:43;;;;;;;10.55;6.38;;;;;;;;;;4966696;28;20101;-74
2023/04/03 02:56:29;;;;;;;10.10;6.47;;;;;;;;;;4979150;28;20019;-74
2023/04/03 02:59:15;;;;;;;11.82;7.30;;;;;;;;;;4966487;28;20027;-74
2023/04/03 03:02:00;;;;;;;10.75;6.47;;;;;;;;;;4980700;28;20023;-75
2023/04/03 03:04:46;;;;;;;8.98;5.90;;;;;;;;;;4979622;28;20042;-75
2023/04/03 03:07:32;;;;;;;10.65;5.97;;;;;;;;;;4966481;28;20019;-75
2023/04/03 03:10:17;;;;;;;7.88;5.57;;;;;;;;;;4981261;28;20019;-75
2023/04/03 03:13:03;;;;;;;8.05;5.28;;;;;;;;;;4979508;28;20073;-73
2023/04/03 03:15:48;;;;;;;9.35;5.53;;;;;;;;;;4966270;28;20057;-75
2023/04/03 03:18:34;;;;;;;10.40;4.78;;;;;;;;;;4966108;28;20435;-75
2023/04/03 03:21:20;;;;;;;5.72;4.50;;;;;;;;;;4980358;28;20035;-75
2023/04/03 03:24:05;;;;;;;6.20;4.53;;;;;;;;;;4979494;28;20059;-75
2023/04/03 03:26:51;;;;;;;6.95;4.70;;;;;;;;;;4979123;28;20383;-74
2023/04/03 03:29:37;;;;;;;8.57;4.63;;;;;;;;;;4965582;28;20494;-75
2023/04/03 03:32:22;;;;;;;5.97;4.45;;;;;;;;;;4979421;28;20320;-75
2023/04/03 03:35:08;;;;;;;6.18;4.28;;;;;;;;;;4979299;28;20420;-74
2023/04/03 03:37:54;;;;;;;6.47;4.78;;;;;;;;;;4979649;28;20023;-74
2023/04/03 03:40:39;;;;;;;7.00;5.00;;;;;;;;;;4964846;28;20022;-74
2023/04/03 03:43:25;;;;;;;8.35;5.57;;;;;;;;;;4982109;28;20031;-75
2023/04/03 03:46:11;;;;;;;6.63;5.18;;;;;;;;;;4980250;28;20069;-77
2023/04/03 03:48:56;;;;;;;7.00;4.70;;;;;;;;;;4979759;28;20033;-74
2023/04/03 03:51:42;;;;;;;7.95;5.45;;;;;;;;;;4980308;28;20093;-74
2023/04/03 03:54:28;;;;;;;8.45;5.57;;;;;;;;;;4979816;28;20029;-75
2023/04/03 03:57:13;;;;;;;7.85;5.40;;;;;;;;;;4978998;28;20466;-74
2023/04/03 03:59:59;;;;;;;11.43;7.18;;;;;;;;;;4979567;28;20458;-75
2023/04/03 04:02:44;;;;;;;18.38;12.40;;;;;;;;;;4979916;28;20030;-75
2023/04/03 04:05:30;;;;;;;13.65;9.70;;;;;;;;;;4979790;28;20029;-74
2023/04/03 04:08:16;;;;;;;14.77;7.90;;;;;;;;;;4965097;28;20038;-74
2023/04/03 04:11:01;;;;;;;14.68;9.95;;;;;;;;;;4978942;28;20022;-72
2023/04/03 04:13:47;;;;;;;17.73;10.30;;;;;;;;;;4965544;28;20022;-73
2023/04/03 04:16:32;;;;;;;13.13;6.47;;;;;;;;;;4979491;28;20455;-75
2023/04/03 04:19:18;;;;;;;14.70;7.97;;;;;;;;;;4978564;28;20351;-74
2023/04/03 04:22:04;;;;;;;11.25;6.40;;;;;;;;;;4978129;28;20034;-74
2023/04/03 04:24:49;;;;;;;13.80;6.30;;;;;;;;;;4965064;28;20458;-74
2023/04/03 04:27:35;;;;;;;15.65;6.85;;;;;;;;;;4978458;28;20526;-73
2023/04/03 04:30:21;;;;;;;10.38;5.95;;;;;;;;;;4966896;28;20069;-76
2023/04/03 04:33:06;;;;;;;12.93;6.80;;;;;;;;;;4979448;28;20045;-75
2023/04/03 04:35:52;;;;;;;16.63;7.63;;;;;;;;;;4980228;28;20029;-75
2023/04/03 04:38:38;;;;;;;19.73;7.75;;;;;;;;;;4980163;28;20034;-76
2023/04/03 04:41:24;;;;;;;16.35;7.38;;;;;;;;;;4980889;28;20089;-75
2023/04/03 04:44:10;;;;;;;16.08;7.45;;;;;;;;;;4984401;28;20050;-75
2023/04/03 04:46:55;;;;;;;12.40;7.03;;;;;;;;;;4999569;28;20054;-75
2023/04/03 04:49:41;;;;;;;12.77;7.28;;;;;;;;;;4972552;28;20019;-76
2023/04/03 04:52:26;;;;;;;14.88;7.75;;;;;;;;;;4965606;28;20432;-76
2023/04/03 04:55:12;;;;;;;20.45;9.02;;;;;;;;;;4967374;28;20026;-76
2023/04/03 04:57:58;;;;;;;19.05;9.63;;;;;;;;;;4980714;28;20023;-75
2023/04/03 05:00:43;;;;;;;23.05;10.82;;;;;;;;;;4966224;28;20118;-74
2023/04/03 05:03:29;;;;;;;27.33;10.98;;;;;;;;;;4983871;28;20049;-76
2023/04/03 05:06:14;;;;;;;27.30;11.23;;;;;;;;;;4997623;28;20019;-76
2023/04/03 05:09:00;;;;;;;22.58;11.63;;;;;;;;;;4987754;28;20019;-75
2023/04/03 05:11:46;;;;;;;23.13;12.32;;;;;;;;;;4980135;28;20058;-76
2023/04/03 05:14:31;;;;;;;18.30;11.18;;;;;;;;;;4980244;28;20090;-75
2023/04/03 05:17:17;;;;;;;24.08;11.60;;;;;;;;;;4979742;28;20033;-76
2023/04/03 05:20:04;;;;;;;21.73;10.63;;;;;;;;;;4979956;28;20443;-75
2023/04/03 05:22:49;;;;;;;22.17;10.60;;;;;;;;;;4965254;28;20035;-74
2023/04/03 05:25:37;;;;;;;18.08;10.95;;;;;;;;;;4965288;28;20351;-75
2023/04/03 05:28:22;;;;;;;22.73;11.48;;;;;;;;;;4978229;28;20113;-75
2023/04/03 05:31:08;;;;;;;19.95;11.25;;;;;;;;;;4979137;28;20511;-75
2023/04/03 05:33:54;;;;;;;24.77;11.23;;;;;;;;;;4979281;28;20042;-75
2023/04/03 05:36:39;;;;;;;23.55;12.25;;;;;;;;;;4963845;28;20023;-75
2023/04/03 05:39:25;;;;;;;23.90;12.32;;;;;;;;;;4977809;28;20041;-76
2023/04/03 05:42:11;;;;;;;22.13;11.52;;;;;;;;;;4965049;28;20038;-75
2023/04/03 05:44:57;;;;;;;24.27;10.82;;;;;;;;;;4976702;28;20023;-75
2023/04/03 05:47:42;;;;;;;30.90;11.25;;;;;;;;;;4963692;28;20035;-76
2023/04/03 05:50:28;;;;;;;18.42;11.05;;;;;;;;;;4976642;28;20018;-76
2023/04/03 05:53:22;;;;;;;17.95;10.20;;;;;;;;;;4977392;28;20033;-75
2023/04/03 05:56:07;;;;;;;20.38;10.88;;;;;;;;;;4977231;28;20030;-75
2023/04/03 05:58:53;;;;;;;23.42;10.63;;;;;;;;;;4964706;28;20023;-77
2023/04/03 06:01:39;;;;;;;19.23;10.38;;;;;;;;;;4977619;28;20053;-76
2023/04/03 06:04:24;;;;;;;17.25;11.13;;;;;;;;;;4977947;28;20023;-75
2023/04/03 06:07:13;;;;;;;18.48;10.20;;;;;;;;;;4977364;28;20491;-75
2023/04/03 06:09:58;;;;;;;16.90;9.93;;;;;;;;;;4977656;28;20069;-75
2023/04/03 06:12:44;;;;;;;12.43;8.25;;;;;;;;;;4977608;28;20027;-75
2023/04/03 06:15:30;;;;;;;22.25;8.40;;;;;;;;;;4966008;28;20026;-75
2023/04/03 06:18:15;;;;;;;14.57;8.15;;;;;;;;;;4963901;28;20023;-76
2023/04/03 06:21:30;;;;;;;12.27;7.03;;;;;;;;;;4979869;28;20038;-76
2023/04/03 06:24:16;;;;;;;12.50;6.45;;;;;;;;;;4984994;28;20050;-75
2023/04/03 06:27:04;;;;;;;8.02;6.20;;;;;;;;;;4968738;28;20026;-75
2023/04/03 06:29:50;;;;;;;20.38;7.15;;;;;;;;;;4982143;28;20058;-75
2023/04/03 06:32:44;;;;;;;8.90;6.50;;;;;;;;;;4982555;28;20039;-76
2023/04/03 06:35:30;;;;;;;6.55;5.35;;;;;;;;;;4982200;28;20093;-75
2023/04/03 06:38:15;;;;;;;7.78;5.82;;;;;;;;;;4969056;28;20116;-75
2023/04/03 06:41:01;;;;;;;8.18;5.75;;;;;;;;;;4968125;28;20066;-76
2023/04/03 06:43:47;;;;;;;10.77;5.65;;;;;;;;;;4967926;28;20023;-75
2023/04/03 06:46:32;;;;;;;16.13;6.22;;;;;;;;;;4967617;28;20396;-76
2023/04/03 06:49:18;;;;;;;9.23;6.13;;;;;;;;;;4968184;28;20026;-76
2023/04/03 06:52:05;;;;;;;7.07;5.05;;;;;;;;;;4981709;28;20509;-77
2023/04/03 06:54:56;;;;;;;9.65;5.20;;;;;;;;;;4969577;28;20023;-75
2023/04/03 06:57:42;;;;;;;9.80;6.07;;;;;;;;;;4982832;28;20078;-76
2023/04/03 07:00:28;;;;;;;6.97;5.45;;;;;;;;;;4982656;28;20026;-76
2023/04/03 07:03:13;;;;;;;8.82;6.78;;;;;;;;;;4983665;28;20345;-78
2023/04/03 07:05:59;;;;;;;8.23;5.43;;;;;;;;;;4969714;28;20157;-76
2023/04/03 07:08:46;;;;;;;10.10;6.30;;;;;;;;;;4981536;28;20062;-75
2023/04/03 07:11:32;;;;;;;6.78;5.10;;;;;;;;;;4982440;28;20026;-77
2023/04/03 07:14:18;;;;;;;7.68;5.53;;;;;;;;;;4983127;28;20033;-76
2023/04/03 07:17:03;;;;;;;9.88;5.75;;;;;;;;;;4979857;28;20023;-75
2023/04/03 07:19:49;;;;;;;6.80;4.97;;;;;;;;;;4991680;28;20027;-75
2023/04/03 07:22:37;;;;;;;45.97;7.47;;;;;;;;;;4984574;28;20038;-75
2023/04/03 07:25:23;;;;;;;7.55;5.30;;;;;;;;;;4998738;28;20020;-75
2023/04/03 07:28:08;;;;;;;6.47;5.10;;;;;;;;;;4997989;28;20355;-74
2023/04/03 07:30:59;;;;;;;6.78;4.57;;;;;;;;;;4984828;28;20015;-76
2023/04/03 07:33:45;;;;;;;5.65;4.40;;;;;;;;;;4981964;28;20049;-76
2023/04/03 07:36:33;;;;;;;5.05;4.32;;;;;;;;;;4981510;28;20027;-75
2023/04/03 07:39:18;;;;;;;7.15;4.97;;;;;;;;;;4983049;28;20424;-76
2023/04/03 07:42:04;;;;;;;8.95;4.90;;;;;;;;;;4967267;28;20085;-75
2023/04/03 07:44:50;;;;;;;5.57;4.60;;;;;;;;;;4967833;28;20029;-75
2023/04/03 07:47:35;;;;;;;7.40;5.07;;;;;;;;;;4968557;28;20019;-75
2023/04/03 07:50:21;;;;;;;8.82;5.68;;;;;;;;;;4982515;28;20073;-76
2023/04/03 07:53:07;;;;;;;12.43;6.28;;;;;;;;;;4984894;28;20054;-74
2023/04/03 07:55:55;;;;;;;13.38;7.03;;;;;;;;;;4986562;28;20363;-75
2023/04/03 07:58:41;;;;;;;8.18;6.25;;;;;;;;;;4983229;28;20019;-75
2023/04/03 08:01:27;;;;;;;9.82;6.55;;;;;;;;;;4982131;28;20082;-76
2023/04/03 08:04:13;;;;;;;11.88;7.30;;;;;;;;;;4980311;28;20038;-76
2023/04/03 08:06:58;;;;;;;9.93;6.72;;;;;;;;;;4967456;28;20031;-75
2023/04/03 08:09:49;;;;;;;9.90;6.47;;;;;;;;;;4980154;28;20503;-75
2023/04/03 08:12:36;;;;;;;12.13;6.53;;;;;;;;;;4965726;28;20077;-76
2023/04/03 08:15:22;;;;;;;17.00;7.10;;;;;;;;;;4980382;28;20034;-76
2023/04/03 08:18:07;;;;;;;12.80;6.72;;;;;;;;;;4980910;28;20030;-75
2023/04/03 08:20:53;;;;;;;12.25;6.60;;;;;;;;;;4965405;28;20065;-74
2023/04/03 08:23:40;;;;;;;11.55;6.00;;;;;;;;;;4980928;28;20042;-75
2023/04/03 08:26:26;;;;;;;12.13;6.28;;;;;;;;;;4980700;28;20431;-75
2023/04/03 08:29:13;;;;;;;9.05;5.88;;;;;;;;;;4979214;28;20448;-75
2023/04/03 08:31:58;;;;;;;7.40;5.05;;;;;;;;;;4978874;28;20023;-75
2023/04/03 08:34:44;;;;;;;9.85;5.57;;;;;;;;;;4979099;28;20019;-76
2023/04/03 08:37:30;;;;;;;11.32;5.63;;;;;;;;;;4964488;28;20034;-75
2023/04/03 08:40:16;;;;;;;11.93;4.97;;;;;;;;;;4965749;28;20084;-75
2023/04/03 08:43:06;;;;;;;10.77;5.88;;;;;;;;;;4979990;28;20025;-75
2023/04/03 08:45:54;;;;;;;8.63;5.47;;;;;;;;;;4977792;28;20122;-75
2023/04/03 08:48:41;;;;;;;8.90;5.22;;;;;;;;;;4979783;28;20025;-76
2023/04/03 08:51:33;;;;;;;7.47;4.75;;;;;;;;;;4965001;28;20061;-75
2023/04/03 08:54:42;;;;;;;8.30;4.68;;;;;;;;;;4963085;28;20042;-76
2023/04/03 08:57:34;;;;;;;9.57;5.13;;;;;;;;;;4979472;28;20033;-75
2023/04/03 09:00:22;;;;;;;12.00;5.20;;;;;;;;;;4979215;28;20447;-75
2023/04/03 09:03:11;;;;;;;11.68;6.00;;;;;;;;;;4978597;28;20034;-76
2023/04/03 09:06:03;;;;;;;9.07;5.10;;;;;;;;;;4978413;28;20110;-75
2023/04/03 09:09:11;;;;;;;56.30;8.10;;;;;;;;;;5156177;27;20377;-76
2023/04/03 09:12:16;;;;;;;11.55;6.13;;;;;;;;;;5145808;27;20039;-76
2023/04/03 09:15:14;;;;;;;7.72;4.60;;;;;;;;;;5115147;28;20019;-75
2023/04/03 09:18:19;;;;;;;11.18;5.65;;;;;;;;;;5117759;28;20019;-76
2023/04/03 09:21:13;;;;;;;21.42;6.10;;;;;;;;;;5131735;28;20029;-75
2023/04/03 09:24:01;;;;;;;12.75;5.40;;;;;;;;;;5133635;28;20020;-75
2023/04/03 09:27:03;;;;;;;11.63;5.43;;;;;;;;;;5117718;28;20031;-76
2023/04/03 09:29:52;;;;;;;17.85;5.80;;;;;;;;;;5152994;27;20094;-76
2023/04/03 09:32:38;;;;;;;16.35;5.97;;;;;;;;;;5138573;27;20049;-76
2023/04/03 09:35:25;;;;;;;11.90;5.63;;;;;;;;;;5138580;27;20015;-76
2023/04/03 09:38:19;;;;;;;10.13;5.32;;;;;;;;;;5153284;27;20331;-76
2023/04/03 09:41:06;;;;;;;12.75;5.47;;;;;;;;;;5153357;27;20019;-76
2023/04/03 09:43:54;;;;;;;9.02;5.38;;;;;;;;;;5139025;27;20059;-76
2023/04/03 09:46:39;;;;;;;10.23;4.85;;;;;;;;;;5138374;27;20019;-77
2023/04/03 09:49:25;;;;;;;10.88;4.85;;;;;;;;;;5152930;27;20450;-75
2023/04/03 09:52:23;;;;;;;12.13;4.25;;;;;;;;;;5153878;27;20087;-76
2023/04/03 09:55:18;;;;;;;10.13;4.40;;;;;;;;;;5138844;27;20068;-76
2023/04/03 09:58:04;;;;;;;7.22;4.78;;;;;;;;;;5153869;27;20030;-75
2023/04/03 10:00:58;;;;;;;10.98;4.70;;;;;;;;;;5152507;27;20476;-76
2023/04/03 10:03:46;;;;;;;13.93;6.00;;;;;;;;;;5152248;27;20022;-75
2023/04/03 10:06:32;;;;;;;8.85;4.60;;;;;;;;;;5151550;27;20025;-76
2023/04/03 10:09:19;;;;;;;6.28;4.57;;;;;;;;;;5137753;27;20022;-75
2023/04/03 10:12:12;;;;;;;9.43;4.35;;;;;;;;;;5137580;27;20026;-75
2023/04/03 10:15:01;;;;;;;7.13;4.38;;;;;;;;;;5136983;27;20431;-75
2023/04/03 10:17:53;;;;;;;7.45;4.07;;;;;;;;;;5152709;27;20478;-76
2023/04/03 10:20:49;;;;;;;9.75;4.68;;;;;;;;;;5123920;27;20019;-76
2023/04/03 10:23:54;;;;;;;6.13;3.97;;;;;;;;;;5155962;27;20011;-74
2023/04/03 10:26:49;;;;;;;10.90;4.30;;;;;;;;;;5143509;27;20030;-76
2023/04/03 10:29:40;;;;;;;5.15;4.00;;;;;;;;;;5139291;27;20023;-76
2023/04/03 10:32:47;;;;;;;9.27;4.28;;;;;;;;;;5138653;27;20015;-76
2023/04/03 10:35:33;;;;;;;6.68;4.10;;;;;;;;;;5139447;27;20151;-76
2023/04/03 10:38:23;;;;;;;4.47;3.83;;;;;;;;;;5126451;27;20023;-77
2023/04/03 10:41:08;;;;;;;7.32;3.75;;;;;;;;;;5124879;27;20026;-76
2023/04/03 10:44:09;;;;;;;10.55;4.10;;;;;;;;;;5139040;27;20027;-76
2023/04/03 10:47:08;;;;;;;4.45;3.13;;;;;;;;;;5140665;27;20015;-76
2023/04/03 10:50:21;;;;;;;7.22;3.20;;;;;;;;;;5151313;27;20023;-75
2023/04/03 10:53:06;;;;;;;10.07;4.35;;;;;;;;;;5134217;27;20015;-77
2023/04/03 10:56:02;;;;;;;6.68;3.30;;;;;;;;;;5124171;27;20027;-76
2023/04/03 10:58:50;;;;;;;8.07;3.65;;;;;;;;;;5123389;27;20045;-76
2023/04/03 11:01:38;;;;;;;5.03;3.33;;;;;;;;;;5124049;27;20085;-75
2023/04/03 11:04:26;;;;;;;7.47;3.10;;;;;;;;;;5122842;27;20020;-75
2023/04/03 11:07:26;;;;;;;7.78;3.38;;;;;;;;;;5138046;27;20114;-75
2023/04/03 11:10:23;;;;;;;11.25;3.38;;;;;;;;;;5137500;27;20316;-76
2023/04/03 11:13:32;;;;;;;6.50;2.88;;;;;;;;;;5137758;27;20034;-76
2023/04/03 11:16:20;;;;;;;5.43;3.17;;;;;;;;;;5123363;27;20054;-75
2023/04/03 11:19:14;;;;;;;6.35;3.13;;;;;;;;;;5136407;27;20466;-75
2023/04/03 11:22:05;;;;;;;5.18;2.90;;;;;;;;;;5122325;27;20030;-76
2023/04/03 11:24:58;;;;;;;5.35;3.10;;;;;;;;;;5122209;27;20455;-75
2023/04/03 11:27:47;;;;;;;7.00;2.90;;;;;;;;;;5137374;27;20031;-74
2023/04/03 11:30:37;;;;;;;5.63;3.00;;;;;;;;;;5136531;27;20070;-76
2023/04/03 11:33:36;;;;;;;8.43;3.33;;;;;;;;;;5139442;27;20031;-76
2023/04/03 11:36:24;;;;;;;8.70;3.30;;;;;;;;;;5125276;27;20019;-75
2023/04/03 11:39:17;;;;;;;5.47;2.80;;;;;;;;;;5138203;27;20050;-75
2023/04/03 11:42:17;;;;;;;5.68;3.00;;;;;;;;;;5137478;27;20023;-75
2023/04/03 11:45:21;;;;;;;3.30;2.70;;;;;;;;;;5137013;27;20023;-75
2023/04/03 11:48:27;;;;;;;5.18;2.45;;;;;;;;;;5136084;27;20027;-75
2023/04/03 11:51:16;;;;;;;6.32;3.22;;;;;;;;;;5122196;27;20027;-76
2023/04/03 11:54:24;;;;;;;7.63;2.95;;;;;;;;;;5136339;27;20023;-76
2023/04/03 11:57:36;;;;;;;8.43;3.00;;;;;;;;;;5138512;27;20019;-76
2023/04/03 12:00:40;;;;;;;7.43;2.47;;;;;;;;;;5137357;27;20401;-76
2023/04/03 12:03:26;;;;;;;4.05;2.67;;;;;;;;;;5138297;27;20031;-76
2023/04/03 12:06:16;;;;;;;20.13;3.45;;;;;;;;;;5125106;27;20047;-74
2023/04/03 12:09:02;;;;;;;5.45;3.00;;;;;;;;;;5124284;27;20580;-76
2023/04/03 12:11:48;;;;;;;9.75;2.78;;;;;;;;;;5140400;27;20091;-74
2023/04/03 12:14:34;;;;;;;3.63;2.10;;;;;;;;;;5123796;27;20022;-75
2023/04/03 12:17:26;;;;;;;4.90;2.10;;;;;;;;;;5135790;27;20045;-76
2023/04/03 12:20:32;;;;;;;5.57;2.83;;;;;;;;;;5136419;27;20089;-75
2023/04/03 12:23:31;;;;;;;7.18;3.20;;;;;;;;;;5116503;27;20038;-73
2023/04/03 12:26:25;;;;;;;8.05;3.30;;;;;;;;;;5135645;27;20506;-75
2023/04/03 12:29:27;;;;;;;5.80;3.35;;;;;;;;;;5135371;27;20400;-77
2023/04/03 12:32:31;;;;;;;6.97;3.08;;;;;;;;;;5135719;27;20015;-77
2023/04/03 12:35:34;;;;;;;5.90;3.35;;;;;;;;;;5124606;27;20125;-75
2023/04/03 12:38:29;;;;;;;7.65;3.60;;;;;;;;;;5140908;27;20019;-72
2023/04/03 12:41:25;;;;;;;9.57;3.90;;;;;;;;;;5124576;27;20019;-75
2023/04/03 12:44:30;;;;;;;8.50;3.95;;;;;;;;;;5121986;27;20023;-76
2023/04/03 12:47:25;;;;;;;11.02;3.45;;;;;;;;;;5122424;27;20023;-74
2023/04/03 12:50:35;;;;;;;5.53;3.72;;;;;;;;;;5120627;27;20023;-76
2023/04/03 12:53:34;;;;;;;9.65;4.30;;;;;;;;;;5136918;27;20098;-76
2023/04/03 12:56:29;;;;;;;6.25;3.72;;;;;;;;;;5123755;28;20081;-75
2023/04/03 12:59:21;;;;;;;7.22;3.83;;;;;;;;;;5122341;28;20023;-75
2023/04/03 13:02:38;;;;;;;9.75;4.20;;;;;;;;;;5121576;28;20023;-75
2023/04/03 13:05:24;;;;;;;5.63;3.70;;;;;;;;;;5137663;28;20029;-76
2023/04/03 13:08:12;;;;;;;7.85;3.80;;;;;;;;;;5136737;28;20530;-73
2023/04/03 13:11:00;;;;;;;7.90;3.65;;;;;;;;;;5120589;28;20106;-77
2023/04/03 13:13:55;;;;;;;6.38;3.72;;;;;;;;;;5136632;28;20069;-73
2023/04/03 13:16:41;;;;;;;7.32;3.42;;;;;;;;;;5139947;28;20015;-73
2023/04/03 13:19:27;;;;;;;7.82;4.32;;;;;;;;;;5120127;28;20019;-73
2023/04/03 13:22:43;;;;;;;10.75;4.43;;;;;;;;;;5119768;28;20378;-74
2023/04/03 13:25:30;;;;;;;12.82;4.70;;;;;;;;;;5135751;28;20023;-75
2023/04/03 13:28:21;;;;;;;7.65;3.90;;;;;;;;;;5135376;28;20015;-75
2023/04/03 13:31:13;;;;;;;9.43;4.25;;;;;;;;;;5137193;28;20161;-76
2023/04/03 13:34:12;;;;;;;12.30;5.85;;;;;;;;;;5152251;28;20015;-72
2023/04/03 13:36:59;;;;;;;12.45;5.88;;;;;;;;;;5126235;28;20050;-74
2023/04/03 13:39:45;;;;;;;11.50;5.05;;;;;;;;;;5134485;28;20031;-74
2023/04/03 13:42:32;;;;;;;9.30;4.90;;;;;;;;;;5136944;28;20093;-75
2023/04/03 13:45:27;;;;;;;8.70;4.78;;;;;;;;;;5122012;28;20023;-74
2023/04/03 13:48:22;;;;;;;17.38;5.75;;;;;;;;;;5120203;28;20080;-76
2023/04/03 13:51:14;;;;;;;9.32;5.30;;;;;;;;;;5119115;28;20023;-74
2023/04/03 13:54:07;;;;;;;12.82;5.40;;;;;;;;;;5138145;27;20023;-75
2023/04/03 13:56:54;;;;;;;10.45;6.10;;;;;;;;;;5140680;27;20019;-76
2023/04/03 13:59:41;;;;;;;11.27;4.97;;;;;;;;;;5139717;27;20027;-74
2023/04/03 14:02:31;;;;;;;9.77;5.88;;;;;;;;;;5137901;27;20094;-73
2023/04/03 14:05:21;;;;;;;10.85;6.15;;;;;;;;;;5125671;27;20105;-74
2023/04/03 14:08:07;;;;;;;16.15;5.82;;;;;;;;;;5138351;27;20107;-73
2023/04/03 14:10:53;;;;;;;10.50;6.07;;;;;;;;;;5139869;27;20552;-74
2023/04/03 14:13:38;;;;;;;12.15;6.95;;;;;;;;;;5139458;27;20061;-74
2023/04/03 14:16:29;;;;;;;15.35;6.68;;;;;;;;;;5112430;27;20043;-74
2023/04/03 14:19:17;;;;;;;11.25;6.70;;;;;;;;;;5139255;27;20019;-75
2023/04/03 14:22:12;;;;;;;8.10;6.60;;;;;;;;;;5141272;27;20023;-73
2023/04/03 14:24:58;;;;;;;9.25;6.70;;;;;;;;;;5141846;27;20139;-74
2023/04/03 14:27:45;;;;;;;10.40;7.43;;;;;;;;;;5139697;27;20350;-74
2023/04/03 14:30:31;;;;;;;8.52;6.82;;;;;;;;;;5127038;27;20077;-74
2023/04/03 14:33:19;;;;;;;9.07;6.93;;;;;;;;;;5129357;27;20583;-73
2023/04/03 14:36:12;;;;;;;8.73;6.55;;;;;;;;;;5130194;27;20104;-74
2023/04/03 14:38:59;;;;;;;11.00;6.88;;;;;;;;;;5130452;27;20054;-75
2023/04/03 14:41:45;;;;;;;12.52;7.18;;;;;;;;;;5128740;27;20042;-76
2023/04/03 14:44:31;;;;;;;8.63;6.90;;;;;;;;;;5129726;27;20023;-74
2023/04/03 14:47:20;;;;;;;8.70;6.72;;;;;;;;;;5128448;27;20336;-73
2023/04/03 14:50:07;;;;;;;16.88;7.10;;;;;;;;;;5125082;27;20039;-74
2023/04/03 14:52:54;;;;;;;13.25;7.70;;;;;;;;;;5124301;27;20026;-74
2023/04/03 14:55:41;;;;;;;13.57;6.82;;;;;;;;;;5138627;27;20068;-75
2023/04/03 14:58:27;;;;;;;8.27;6.53;;;;;;;;;;5138643;27;20114;-75
2023/04/03 15:01:13;;;;;;;10.00;6.80;;;;;;;;;;5123387;27;20042;-75
2023/04/03 15:03:59;;;;;;;12.25;7.30;;;;;;;;;;5138676;27;20027;-75
2023/04/03 15:06:45;;;;;;;9.10;6.80;;;;;;;;;;5120161;27;20340;-75
2023/04/03 15:09:31;;;;;;;14.75;7.53;;;;;;;;;;5136652;27;20024;-75
2023/04/03 15:12:17;;;;;;;11.98;8.00;;;;;;;;;;5137890;27;20038;-75
2023/04/03 15:15:02;;;;;;;16.73;7.55;;;;;;;;;;5126912;27;20015;-75
2023/04/03 15:17:53;;;;;;;9.45;7.03;;;;;;;;;;5124309;27;20026;-76
2023/04/03 15:20:39;;;;;;;12.43;7.97;;;;;;;;;;5127398;27;20084;-75
2023/04/03 15:23:25;;;;;;;14.25;8.27;;;;;;;;;;5123841;27;20019;-75
2023/04/03 15:26:11;;;;;;;14.13;8.70;;;;;;;;;;5123154;27;20026;-74
2023/04/03 15:28:57;;;;;;;19.85;9.15;;;;;;;;;;5122355;27;20042;-75
2023/04/03 15:31:42;;;;;;;13.65;8.52;;;;;;;;;;5139089;27;20015;-76
2023/04/03 15:34:28;;;;;;;16.08;9.45;;;;;;;;;;5136992;27;20019;-75
2023/04/03 15:37:14;;;;;;;16.80;8.95;;;;;;;;;;5138047;27;20019;-76
2023/04/03 15:40:04;;;;;;;17.08;9.93;;;;;;;;;;5124340;27;20019;-76
2023/04/03 15:42:50;;;;;;;18.55;10.73;;;;;;;;;;5125439;27;20021;-76
2023/04/03 15:45:36;;;;;;;22.17;10.93;;;;;;;;;;5138489;27;20385;-74
2023/04/03 15:48:22;;;;;;;14.25;9.60;;;;;;;;;;5127378;27;20084;-75
2023/04/03 15:51:07;;;;;;;15.55;8.75;;;;;;;;;;5148682;27;20019;-75
2023/04/03 15:53:53;;;;;;;15.73;9.15;;;;;;;;;;5153993;27;20053;-76
2023/04/03 15:56:38;;;;;;;14.43;9.43;;;;;;;;;;5141268;27;20413;-74
2023/04/03 15:59:24;;;;;;;18.13;9.95;;;;;;;;;;5121561;27;20098;-74
2023/04/03 16:02:12;;;;;;;18.23;10.15;;;;;;;;;;5122144;27;20106;-76
2023/04/03 16:04:58;;;;;;;15.85;9.77;;;;;;;;;;5123235;27;20054;-74
2023/04/03 16:07:45;;;;;;;14.98;9.55;;;;;;;;;;5137596;27;20051;-74
2023/04/03 16:10:30;;;;;;;16.27;9.80;;;;;;;;;;5147832;27;20019;-74
2023/04/03 16:13:16;;;;;;;15.35;10.00;;;;;;;;;;5141215;27;20019;-75
2023/04/03 16:16:02;;;;;;;20.52;10.23;;;;;;;;;;5140704;27;20058;-76
2023/04/03 16:18:47;;;;;;;14.85;9.38;;;;;;;;;;5137028;27;20113;-76
2023/04/03 16:21:33;;;;;;;13.20;9.02;;;;;;;;;;5124366;27;20035;-75
2023/04/03 16:24:19;;;;;;;14.40;9.32;;;;;;;;;;5124579;27;20038;-76
2023/04/03 16:27:04;;;;;;;14.68;9.07;;;;;;;;;;5137750;27;20343;-75
2023/04/03 16:29:50;;;;;;;12.10;9.02;;;;;;;;;;5137573;27;20076;-75
2023/04/03 16:32:36;;;;;;;15.00;9.30;;;;;;;;;;5137478;27;20023;-76
2023/04/03 16:35:22;;;;;;;18.02;9.90;;;;;;;;;;5138729;27;20022;-75
2023/04/03 16:38:08;;;;;;;15.25;9.00;;;;;;;;;;5138161;27;20129;-75
2023/04/03 16:40:56;;;;;;;13.45;8.80;;;;;;;;;;5125362;27;20398;-75
2023/04/03 16:43:42;;;;;;;12.07;8.80;;;;;;;;;;5136404;27;20023;-75